Time;durP1;ratioP1;P1;durP2;ratioP2;P2;SDS_P1;SDS_P2;PMS_P1;PMS_P2;Temp;Humidity;BMP_temperature;BMP_pressure;BME280_temperature;BME280_humidity;BME280_pressure;Samples;Min_cycle;Max_cycle;Signal;HPM_P1;HPM_P2
2022/06/16 00:00:07;;;;;;;;;11.67;11.67;;;;;24.58;42.35;101497.31;5064139;28;45481;-68
2022/06/16 00:02:32;;;;;;;;;11.67;10.67;;;;;24.51;43.16;101502.94;5063800;28;45635;-68
2022/06/16 00:04:57;;;;;;;;;13.00;11.67;;;;;24.44;42.85;101486.28;5063420;28;45259;-68
2022/06/16 00:07:23;;;;;;;;;14.67;12.00;;;;;24.35;44.13;101486.75;5063605;28;45303;-68
2022/06/16 00:09:49;;;;;;;;;10.00;10.00;;;;;24.34;43.70;101501.72;5079583;28;45566;-68
2022/06/16 00:12:15;;;;;;;;;13.33;12.33;;;;;24.21;43.76;101474.88;5063636;28;45331;-68
2022/06/16 00:14:40;;;;;;;;;9.00;9.00;;;;;24.32;43.64;101504.75;5063576;28;45259;-68
2022/06/16 00:17:06;;;;;;;;;11.67;11.67;;;;;24.27;44.15;101495.34;5063768;28;45345;-68
2022/06/16 00:19:32;;;;;;;;;11.00;11.00;;;;;24.28;43.83;101500.69;5062480;28;45298;-68
2022/06/16 00:21:57;;;;;;;;;12.00;12.00;;;;;24.23;44.74;101499.66;5063583;28;45317;-68
2022/06/16 00:24:26;;;;;;;;;11.33;11.00;;;;;24.21;44.30;101504.56;5063178;28;45228;-68
2022/06/16 00:26:52;;;;;;;;;11.00;11.00;;;;;24.19;44.79;101506.66;5053187;28;45234;-67
2022/06/16 00:29:17;;;;;;;;;14.50;11.00;;;;;24.15;44.36;101499.84;5063530;28;45645;-68
2022/06/16 00:31:43;;;;;;;;;13.00;11.75;;;;;24.11;45.18;101501.38;5063265;28;45459;-68
2022/06/16 00:34:08;;;;;;;;;14.25;13.00;;;;;24.03;45.03;101506.09;5063355;28;45399;-67
2022/06/16 00:36:35;;;;;;;;;11.33;10.67;;;;;24.01;45.16;101516.56;5063517;28;45300;-67
2022/06/16 00:39:01;;;;;;;;;12.33;11.67;;;;;23.92;45.53;101509.53;5063741;28;45374;-68
2022/06/16 00:41:26;;;;;;;;;11.00;9.67;;;;;23.86;46.00;101515.09;5063152;28;45396;-67
2022/06/16 00:43:51;;;;;;;;;12.50;12.25;;;;;23.85;45.72;101524.50;5063231;28;45373;-67
2022/06/16 00:46:18;;;;;;;;;14.00;12.75;;;;;23.80;45.63;101519.59;5063472;28;45601;-68
2022/06/16 00:48:55;;;;;;;;;12.25;12.25;;;;;23.80;45.62;101533.47;5063648;28;45238;-68
2022/06/16 00:51:32;;;;;;;;;12.00;12.00;;;;;23.70;45.92;101527.50;5063239;28;46260;-69
2022/06/16 00:54:07;;;;;;;;;13.00;13.00;;;;;23.65;45.99;101525.41;5061431;28;45368;-71
2022/06/16 00:56:32;;;;;;;;;4.33;3.33;;;;;23.64;47.00;101528.38;5063397;28;45460;-68
2022/06/16 00:59:02;;;;;;;;;15.67;12.33;;;;;23.58;48.16;101532.88;5063706;28;45456;-68
2022/06/16 01:01:28;;;;;;;;;14.33;14.33;;;;;23.51;46.67;101531.19;5063077;28;45486;-67
2022/06/16 01:06:39;;;;;;;;;14.00;12.00;;;;;23.46;47.87;101539.22;5067466;28;45228;-68
2022/06/16 01:09:11;;;;;;;;;20.75;16.50;;;;;23.43;48.45;101550.75;5068430;27;45342;-68
2022/06/16 01:15:00;;;;;;;;;13.00;11.33;;;;;23.32;48.38;101562.47;5069510;28;45298;-68
2022/06/16 01:17:38;;;;;;;;;12.50;12.25;;;;;23.26;48.29;101559.50;5068236;28;45356;-68
2022/06/16 01:20:06;;;;;;;;;12.67;11.00;;;;;23.25;49.14;101571.66;5069798;28;45614;-68
2022/06/16 01:23:09;;;;;;;;;16.67;16.00;;;;;23.23;48.87;101564.63;5069112;28;45520;-67
2022/06/16 01:25:56;;;;;;;;;15.00;13.33;;;;;23.26;48.94;101576.13;5069414;28;45327;-68
2022/06/16 01:28:34;;;;;;;;;16.50;13.25;;;;;23.24;49.05;101572.72;5058330;28;45448;-68
2022/06/16 01:31:27;;;;;;;;;13.00;13.00;;;;;23.24;48.92;101577.41;5069896;28;45539;-68
2022/06/16 01:34:08;;;;;;;;;16.25;15.00;;;;;23.26;48.93;101578.06;5069119;28;45529;-68
2022/06/16 01:36:41;;;;;;;;;14.00;12.75;;;;;23.25;48.80;101584.66;5069658;28;45233;-68
2022/06/16 01:39:47;;;;;;;;;14.75;14.75;;;;;23.20;48.71;101571.44;5069089;28;45329;-68
2022/06/16 01:42:25;;;;;;;;;16.00;15.25;;;;;23.16;48.66;101574.81;5058620;28;45660;-68
2022/06/16 01:45:01;;;;;;;;;17.50;15.25;;;;;23.19;48.47;101578.03;5068956;28;46287;-68
2022/06/16 01:47:29;;;;;;;;;13.25;12.25;;;;;23.19;49.12;101579.97;5069032;28;45246;-68
2022/06/16 01:50:02;;;;;;;;;14.25;12.75;;;;;23.19;48.05;101579.97;5069159;28;45266;-68
2022/06/16 01:52:42;;;;;;;;;13.33;13.33;;;;;23.18;49.87;101587.44;5069600;28;45375;-68
2022/06/16 01:55:15;;;;;;;;;17.50;17.50;;;;;23.03;50.25;101597.84;5068954;28;45257;-69
2022/06/16 01:57:56;;;;;;;;;16.50;14.50;;;;;23.01;49.65;101596.38;5069114;28;45468;-68
2022/06/16 02:00:24;;;;;;;;;17.75;15.25;;;;;23.00;49.87;101594.66;5068983;28;45502;-67
2022/06/16 02:02:59;;;;;;;;;16.75;15.00;;;;;22.89;51.28;101596.09;5069364;28;45333;-67
2022/06/16 02:05:36;;;;;;;;;15.00;14.75;;;;;22.86;50.28;101607.63;5069123;28;45556;-68
2022/06/16 02:08:17;;;;;;;;;16.25;14.75;;;;;22.80;50.76;101614.81;5068494;28;45504;-68
2022/06/16 02:10:51;;;;;;;;;11.25;11.25;;;;;22.79;50.77;101613.09;5068977;28;45551;-67
2022/06/16 02:13:21;;;;;;;;;15.25;14.75;;;;;22.77;51.34;101620.78;5067928;28;45333;-68
2022/06/16 02:16:15;;;;;;;;;15.67;15.67;;;;;22.74;50.99;101617.56;5067530;28;45473;-68
2022/06/16 02:18:43;;;;;;;;;18.33;15.33;;;;;22.75;51.00;101611.84;5065215;28;45337;-68
2022/06/16 02:21:27;;;;;;;;;18.75;15.00;;;;;22.71;51.11;101613.28;5064341;28;45396;-67
2022/06/16 02:23:53;;;;;;;;;13.00;13.00;;;;;22.65;52.10;101613.22;5064319;28;45595;-68
2022/06/16 02:26:19;;;;;;;;;18.25;16.50;;;;;22.60;51.78;101607.47;5065010;28;45227;-67
2022/06/16 02:28:50;;;;;;;;;14.25;13.50;;;;;22.57;52.23;101614.28;5064165;28;45290;-67
2022/06/16 02:31:43;;;;;;;;;18.00;16.25;;;;;22.53;51.92;101613.84;5065520;28;45427;-67
2022/06/16 02:34:46;;;;;;;;;13.25;13.25;;;;;22.57;51.71;101618.97;5064396;28;45313;-67
2022/06/16 02:37:14;;;;;;;;;17.50;14.50;;;;;22.55;51.32;101610.00;5063741;28;47746;-67
2022/06/16 02:39:42;;;;;;;;;14.00;14.00;;;;;22.57;52.49;101613.44;5065287;28;45372;-68
2022/06/16 02:42:32;;;;;;;;;21.00;16.50;;;;;22.43;52.71;101612.50;5065143;28;45317;-68
2022/06/16 02:45:06;;;;;;;;;15.75;15.25;;;;;22.41;53.03;101621.03;5065708;28;45285;-67
2022/06/16 02:47:58;;;;;;;;;19.00;18.00;;;;;22.30;53.72;101612.44;5064993;28;45147;-67
2022/06/16 02:50:42;;;;;;;;;19.00;16.50;;;;;22.33;52.52;101612.88;5061767;28;45560;-67
2022/06/16 02:56:14;;;;;;;;;19.75;18.00;;;;;22.24;54.02;101629.84;5065580;28;45533;-67
2022/06/16 02:58:43;;;;;;;;;20.75;18.75;;;;;22.14;54.04;101627.44;5064653;28;45392;-67
2022/06/16 03:01:10;;;;;;;;;18.25;14.75;;;;;22.14;53.75;101632.97;5064790;28;45373;-67
2022/06/16 03:03:37;;;;;;;;;15.75;15.75;;;;;22.09;53.63;101629.97;5080167;28;45504;-67
2022/06/16 03:06:03;;;;;;;;;18.75;15.75;;;;;22.03;54.75;101628.88;5065179;28;45321;-68
2022/06/16 03:08:30;;;;;;;;;18.25;18.25;;;;;21.99;54.61;101626.72;5064083;28;45447;-68
2022/06/16 03:10:58;;;;;;;;;19.50;16.75;;;;;22.07;53.44;101630.16;5064703;28;45421;-67
2022/06/16 03:13:30;;;;;;;;;17.00;16.00;;;;;22.01;53.80;101625.44;5064612;28;45356;-67
2022/06/16 03:15:57;;;;;;;;;12.67;11.67;;;;;21.98;54.50;101636.09;5065100;28;45241;-67
2022/06/16 03:18:23;;;;;;;;;17.75;17.50;;;;;21.89;54.89;101631.72;5064500;28;45237;-68
2022/06/16 03:20:49;;;;;;;;;23.75;17.00;;;;;21.90;54.96;101633.44;5064437;28;45393;-67
2022/06/16 03:23:15;;;;;;;;;18.00;16.50;;;;;21.81;55.79;101640.16;5064412;28;45560;-67
2022/06/16 03:25:41;;;;;;;;;20.00;19.75;;;;;21.71;55.04;101638.59;5064737;28;45479;-67
2022/06/16 03:28:07;;;;;;;;;16.50;16.25;;;;;21.68;55.46;101641.78;5064263;28;46548;-67
2022/06/16 03:30:34;;;;;;;;;19.00;18.50;;;;;21.68;56.56;101647.31;5063081;28;45270;-69
2022/06/16 03:33:00;;;;;;;;;20.00;18.25;;;;;21.63;55.68;101648.94;5064353;28;45226;-67
2022/06/16 03:35:26;;;;;;;;;24.00;23.00;;;;;21.59;56.44;101647.63;5064489;28;45173;-67
2022/06/16 03:37:51;;;;;;;;;20.50;19.25;;;;;21.49;56.09;101647.97;5063673;28;46122;-67
2022/06/16 03:40:18;;;;;;;;;17.00;16.25;;;;;21.54;56.65;101648.25;5064096;28;45298;-68
2022/06/16 03:42:43;;;;;;;;;21.75;18.75;;;;;21.54;57.03;101653.78;5064519;28;45366;-69
2022/06/16 03:45:09;;;;;;;;;20.50;20.50;;;;;21.44;56.61;101644.94;5063308;28;45613;-68
2022/06/16 03:47:35;;;;;;;;;19.25;19.00;;;;;21.41;56.50;101642.56;5063971;28;46553;-67
2022/06/16 03:50:00;;;;;;;;;18.00;18.00;;;;;21.39;56.08;101646.59;5064022;28;45302;-69
2022/06/16 03:52:25;;;;;;;;;22.00;17.25;;;;;21.40;56.71;101643.63;5063966;28;45306;-67
2022/06/16 03:54:51;;;;;;;;;19.50;19.50;;;;;21.43;55.96;101651.53;5064323;28;45631;-68
2022/06/16 03:57:17;;;;;;;;;15.50;14.50;;;;;21.44;55.71;101655.16;5063990;28;47869;-67
2022/06/16 03:59:42;;;;;;;;;22.75;21.00;;;;;21.45;56.39;101652.19;5063796;28;45206;-67
2022/06/16 04:02:08;;;;;;;;;19.50;19.50;;;;;21.52;55.63;101666.06;5064038;28;45266;-67
2022/06/16 04:04:33;;;;;;;;;19.75;19.00;;;;;21.46;56.04;101664.97;5064187;28;45424;-67
2022/06/16 04:06:58;;;;;;;;;14.50;14.50;;;;;21.50;55.92;101669.03;5061904;28;45653;-67
2022/06/16 04:09:24;;;;;;;;;19.25;18.25;;;;;21.47;56.22;101666.69;5063314;28;45319;-67
2022/06/16 04:11:49;;;;;;;;;20.00;17.75;;;;;21.50;56.12;101666.25;5063643;28;45235;-67
2022/06/16 04:14:15;;;;;;;;;27.75;25.75;;;;;21.58;56.00;101662.50;5062804;28;45484;-67
2022/06/16 04:16:52;;;;;;;;;20.00;18.25;;;;;21.55;56.35;101658.22;5063209;28;46480;-67
2022/06/16 04:19:21;;;;;;;;;21.75;20.25;;;;;21.47;56.11;101660.28;5063582;28;45239;-68
2022/06/16 04:21:48;;;;;;;;;19.25;16.00;;;;;21.49;56.27;101664.53;5063203;28;45317;-66
2022/06/16 04:24:14;;;;;;;;;24.25;23.75;;;;;21.36;56.49;101651.44;5062067;28;45204;-67
2022/06/16 04:26:40;;;;;;;;;23.50;20.25;;;;;21.53;56.25;101665.88;5062909;28;46857;-67
2022/06/16 04:29:08;;;;;;;;;25.00;21.50;;;;;21.56;56.02;101675.66;5063201;28;45247;-67
2022/06/16 04:31:33;;;;;;;;;23.75;23.00;;;;;21.49;56.71;101675.59;5063505;28;45281;-67
2022/06/16 04:33:59;;;;;;;;;29.00;27.25;;;;;21.52;56.52;101685.44;5063631;28;45321;-68
2022/06/16 04:36:24;;;;;;;;;27.25;20.25;;;;;21.62;55.34;101685.97;5062905;28;45374;-68
2022/06/16 04:38:50;;;;;;;;;25.50;24.75;;;;;21.59;56.05;101687.22;5062736;28;45835;-68
2022/06/16 04:41:16;;;;;;;;;25.25;25.25;;;;;21.67;55.61;101694.50;5062788;28;45747;-66
2022/06/16 04:43:42;;;;;;;;;26.25;22.00;;;;;21.63;55.41;101705.09;5063289;28;45372;-67
2022/06/16 04:46:08;;;;;;;;;28.75;24.25;;;;;21.64;55.28;101701.28;5062923;28;45299;-68
2022/06/16 04:48:35;;;;;;;;;21.75;18.50;;;;;21.66;55.47;101698.34;5061425;28;45370;-68
2022/06/16 04:51:03;;;;;;;;;22.00;19.50;;;;;21.69;55.13;101704.34;5061779;28;45208;-67
2022/06/16 04:53:28;;;;;;;;;26.00;22.75;;;;;21.70;54.55;101703.25;5062934;28;45499;-67
2022/06/16 04:55:58;;;;;;;;;22.50;18.75;;;;;21.77;54.95;101706.94;5062766;28;45319;-67
2022/06/16 04:58:25;;;;;;;;;22.50;22.00;;;;;21.88;54.32;101704.69;5062321;28;45246;-69
2022/06/16 05:00:52;;;;;;;;;20.25;20.00;;;;;21.87;54.27;101706.63;5062590;28;45397;-68
2022/06/16 05:03:20;;;;;;;;;22.50;19.25;;;;;21.96;53.65;101704.56;5078252;28;45171;-69
2022/06/16 05:05:46;;;;;;;;;18.75;18.25;;;;;22.04;53.82;101707.22;5060553;28;48159;-66
2022/06/16 05:08:12;;;;;;;;;19.00;18.00;;;;;22.11;53.15;101716.44;5061179;28;45444;-68
2022/06/16 05:10:38;;;;;;;;;24.00;21.50;;;;;22.76;51.71;101720.75;5060425;28;46471;-68
2022/06/16 05:13:03;;;;;;;;;19.25;18.00;;;;;23.96;48.31;101721.75;5062277;28;45554;-68
2022/06/16 05:15:29;;;;;;;;;19.00;17.75;;;;;23.53;49.06;101712.09;5061938;28;46442;-69
2022/06/16 05:17:54;;;;;;;;;21.75;21.25;;;;;23.17;51.02;101738.19;5061630;28;45242;-68
2022/06/16 05:20:19;;;;;;;;;25.00;23.75;;;;;22.92;51.24;101739.81;5061526;28;45264;-67
2022/06/16 05:22:44;;;;;;;;;18.75;18.75;;;;;22.72;51.62;101738.81;5062054;28;45465;-67
2022/06/16 05:25:10;;;;;;;;;22.75;18.25;;;;;22.64;52.14;101742.59;5061682;28;45494;-66
2022/06/16 05:27:35;;;;;;;;;18.50;18.50;;;;;22.55;51.79;101745.72;5060904;28;45392;-68
2022/06/16 05:30:02;;;;;;;;;20.50;18.00;;;;;22.51;51.13;101754.44;5061248;28;45247;-70
2022/06/16 05:32:27;;;;;;;;;17.25;16.00;;;;;22.40;52.44;101757.78;5060304;28;45334;-67
2022/06/16 05:34:53;;;;;;;;;20.00;18.75;;;;;22.57;51.71;101774.94;5061627;28;45412;-68
2022/06/16 05:37:19;;;;;;;;;24.25;22.25;;;;;22.66;51.82;101776.47;5059446;28;45407;-68
2022/06/16 05:39:47;;;;;;;;;26.25;24.25;;;;;23.42;49.35;101785.66;5061534;28;45294;-68
2022/06/16 05:42:12;;;;;;;;;24.25;19.75;;;;;24.38;47.32;101776.06;5077427;27;45461;-68
2022/06/16 05:44:37;;;;;;;;;27.00;23.00;;;;;25.21;45.26;101788.31;5061916;28;45925;-69
2022/06/16 05:47:04;;;;;;;;;23.50;18.25;;;;;24.42;46.17;101790.38;5061422;28;45423;-69
2022/06/16 05:49:29;;;;;;;;;28.75;25.00;;;;;23.78;47.34;101793.69;5061798;28;45252;-69
2022/06/16 05:51:55;;;;;;;;;20.25;19.50;;;;;23.42;48.46;101807.84;5061564;28;45453;-67
2022/06/16 05:54:20;;;;;;;;;27.00;21.50;;;;;23.23;49.58;101803.91;5063811;28;46171;-67
2022/06/16 05:56:45;;;;;;;;;22.00;20.00;;;;;23.10;49.49;101797.44;5064469;28;45257;-67
2022/06/16 05:59:11;;;;;;;;;25.25;21.00;;;;;23.01;50.04;101794.00;5080786;27;45294;-67
2022/06/16 06:01:37;;;;;;;;;28.75;20.75;;;;;23.40;48.93;101800.78;5063285;28;45309;-67
2022/06/16 06:04:03;;;;;;;;;22.25;21.75;;;;;23.71;48.00;101805.84;5064267;28;45354;-67
2022/06/16 06:06:28;;;;;;;;;28.75;21.50;;;;;23.87;47.43;101806.31;5062992;28;45336;-67
2022/06/16 06:17:14;;;;;;;;;18.75;17.50;;;;;24.38;44.96;101802.97;5064048;28;45323;-68
2022/06/16 06:19:40;;;;;;;;;21.75;18.25;;;;;24.50;44.94;101811.50;5061958;28;45292;-70
2022/06/16 06:22:13;;;;;;;;;21.50;18.75;;;;;24.43;44.68;101808.75;5063315;28;45576;-67
2022/06/16 06:24:49;;;;;;;;;24.25;22.75;;;;;24.25;44.72;101822.44;5063064;28;46187;-67
2022/06/16 06:27:35;;;;;;;;;11.25;11.25;;;;;24.11;44.95;101826.22;5061462;28;45283;-67
2022/06/16 06:30:04;;;;;;;;;19.00;17.50;;;;;24.32;44.42;101826.06;5061620;28;45200;-68
2022/06/16 06:32:30;;;;;;;;;18.50;18.00;;;;;24.43;44.59;101830.97;5064038;28;45325;-68
2022/06/16 06:34:55;;;;;;;;;18.00;18.00;;;;;24.52;43.97;101834.41;5063431;28;46623;-68
2022/06/16 06:37:25;;;;;;;;;18.25;18.25;;;;;24.60;43.43;101829.47;5063451;28;45273;-67
2022/06/16 06:39:51;;;;;;;;;17.25;15.50;;;;;24.63;43.90;101840.16;5064530;28;45227;-68
2022/06/16 06:42:18;;;;;;;;;19.00;19.00;;;;;24.54;43.24;101838.69;5079351;28;45393;-69
2022/06/16 06:44:43;;;;;;;;;19.75;17.50;;;;;24.55;44.13;101848.69;5063525;28;46167;-68
2022/06/16 06:47:19;;;;;;;;;17.75;16.00;;;;;24.34;43.38;101848.91;5063011;28;45265;-69
2022/06/16 06:49:45;;;;;;;;;17.50;16.50;;;;;24.49;42.76;101849.56;5063863;28;45335;-69
2022/06/16 06:52:10;;;;;;;;;17.50;16.75;;;;;24.39;43.04;101850.00;5063662;28;45351;-67
2022/06/16 06:54:36;;;;;;;;;20.50;20.00;;;;;24.60;42.01;101854.50;5063811;28;46743;-67
2022/06/16 06:57:02;;;;;;;;;15.25;15.25;;;;;24.52;42.59;101851.91;5063785;28;45397;-68
2022/06/16 06:59:27;;;;;;;;;18.00;15.75;;;;;24.52;41.82;101848.28;5063665;28;45456;-67
2022/06/16 07:01:52;;;;;;;;;19.50;19.50;;;;;24.55;42.20;101845.06;5063871;28;45297;-68
2022/06/16 07:04:19;;;;;;;;;15.75;15.75;;;;;24.52;42.40;101854.69;5063066;28;45317;-67
2022/06/16 07:06:46;;;;;;;;;17.75;17.75;;;;;24.75;42.04;101845.94;5063644;28;45290;-68
2022/06/16 07:09:13;;;;;;;;;22.25;19.75;;;;;25.00;41.48;101846.13;5061850;28;45280;-67
2022/06/16 07:11:42;;;;;;;;;27.75;23.75;;;;;24.92;41.86;101840.78;5064437;28;45370;-68
2022/06/16 07:14:08;;;;;;;;;24.50;21.75;;;;;25.03;41.57;101862.38;5061350;28;47196;-69
2022/06/16 07:16:35;;;;;;;;;23.25;21.50;;;;;24.99;42.01;101859.16;5062176;28;45457;-66
2022/06/16 07:19:00;;;;;;;;;24.00;21.25;;;;;24.99;41.17;101855.53;5063268;28;45240;-68
2022/06/16 07:21:25;;;;;;;;;23.50;21.00;;;;;25.29;40.20;101872.59;5063361;28;45191;-68
2022/06/16 07:23:51;;;;;;;;;17.25;15.50;;;;;25.26;40.09;101868.34;5063493;28;46368;-68
2022/06/16 07:26:18;;;;;;;;;19.25;19.00;;;;;25.27;40.06;101874.75;5061103;28;45417;-69
2022/06/16 07:28:43;;;;;;;;;25.25;19.00;;;;;25.16;39.05;101867.91;5078842;27;45363;-69
2022/06/16 07:31:09;;;;;;;;;11.25;11.25;;;;;24.97;38.14;101877.16;5063174;28;45655;-70
2022/06/16 07:33:34;;;;;;;;;12.33;10.67;;;;;25.08;37.07;101877.34;5063025;28;45525;-68
2022/06/16 07:36:00;;;;;;;;;13.75;12.00;;;;;25.45;37.95;101884.09;5063734;28;45298;-68
2022/06/16 07:38:26;;;;;;;;;13.75;12.75;;;;;25.30;36.19;101879.84;5062081;28;45909;-68
2022/06/16 07:41:30;;;;;;;;;12.33;12.33;;;;;25.53;36.71;101888.56;5063906;28;45272;-68
2022/06/16 07:43:37;;;;;;;;;13.50;11.50;;;;;25.88;35.46;101887.16;5062801;28;45379;-69
2022/06/16 07:46:02;;;;;;;;;15.00;14.25;;;;;25.90;35.12;101893.38;5063023;28;45430;-68
2022/06/16 07:48:27;;;;;;;;;12.00;11.00;;;;;26.01;34.05;101889.00;5061600;28;45312;-69
2022/06/16 07:50:53;;;;;;;;;8.00;8.00;;;;;26.16;33.09;101892.34;5063561;28;45431;-70
2022/06/16 07:53:18;;;;;;;;;12.00;10.67;;;;;26.33;33.77;101882.44;5062760;28;45338;-67
2022/06/16 07:55:43;;;;;;;;;13.00;11.00;;;;;26.33;31.71;101885.22;5061487;28;45267;-69
2022/06/16 07:58:09;;;;;;;;;15.33;11.33;;;;;26.36;32.22;101889.50;5063258;28;45163;-70
2022/06/16 08:00:35;;;;;;;;;14.25;13.25;;;;;26.44;31.71;101880.88;5079352;28;45203;-67
2022/06/16 08:03:01;;;;;;;;;9.33;8.33;;;;;26.42;32.67;101880.22;5063504;28;45592;-68
2022/06/16 08:05:27;;;;;;;;;17.33;11.67;;;;;26.56;31.75;101883.75;5076601;27;45391;-68
2022/06/16 08:07:52;;;;;;;;;12.25;12.25;;;;;26.38;32.91;101878.94;5063331;28;44694;-68
2022/06/16 08:10:21;;;;;;;;;12.00;8.67;;;;;26.46;33.17;101866.69;5064008;28;45396;-67
2022/06/16 08:12:47;;;;;;;;;12.50;10.00;;;;;26.81;32.35;101884.63;5063427;28;45417;-68
2022/06/16 08:15:12;;;;;;;;;15.00;13.75;;;;;26.90;31.88;101871.25;5062768;28;45301;-68
2022/06/16 08:17:41;;;;;;;;;9.25;8.75;;;;;27.02;31.88;101887.03;5063521;28;45322;-68
2022/06/16 08:20:07;;;;;;;;;11.00;11.00;;;;;26.94;31.80;101886.47;5063778;28;45516;-68
2022/06/16 08:22:33;;;;;;;;;14.33;14.00;;;;;27.10;31.16;101888.69;5062990;28;45422;-68
2022/06/16 08:24:59;;;;;;;;;13.33;12.00;;;;;27.13;31.22;101886.25;5063269;28;45341;-66
2022/06/16 08:27:31;;;;;;;;;12.67;10.33;;;;;27.28;31.03;101888.69;5072108;28;45538;-68
2022/06/16 08:29:56;;;;;;;;;8.33;8.33;;;;;27.32;30.71;101887.16;5069077;28;45188;-69
2022/06/16 08:32:23;;;;;;;;;10.67;10.67;;;;;27.16;31.29;101886.91;5069928;27;46535;-69
2022/06/16 08:34:49;;;;;;;;;7.33;7.33;;;;;26.98;30.70;101891.34;5074233;28;45436;-69
2022/06/16 08:37:15;;;;;;;;;13.33;12.00;;;;;27.13;31.14;101877.91;5073265;28;45304;-69
2022/06/16 08:39:41;;;;;;;;;11.33;10.00;;;;;27.06;30.70;101882.69;5073574;27;45444;-68
2022/06/16 08:42:25;;;;;;;;;17.50;12.75;;;;;26.89;30.77;101887.09;5070161;27;45354;-68
2022/06/16 08:45:00;;;;;;;;;12.75;10.00;;;;;26.80;29.70;101890.44;5068296;28;45388;-69
2022/06/16 08:47:39;;;;;;;;;7.33;7.33;;;;;27.24;28.94;101884.66;5071474;27;45464;-68
2022/06/16 08:50:23;;;;;;;;;11.33;8.67;;;;;27.63;29.81;101886.16;5068468;28;45543;-68
2022/06/16 08:53:19;;;;;;;;;9.33;8.33;;;;;27.67;28.39;101890.19;5062854;28;46058;-68
2022/06/16 08:56:14;;;;;;;;;13.33;10.00;;;;;27.76;28.79;101894.34;5064695;28;45457;-69
2022/06/16 08:58:48;;;;;;;;;6.00;6.00;;;;;27.79;27.59;101890.25;5061626;28;45330;-69
2022/06/16 09:01:18;;;;;;;;;8.67;7.00;;;;;27.87;26.41;101901.97;5063183;28;45258;-68
2022/06/16 09:03:56;;;;;;;;;7.33;7.33;;;;;27.63;26.22;101894.53;5061888;28;45391;-69
2022/06/16 09:06:28;;;;;;;;;7.00;7.00;;;;;27.60;26.08;101889.44;5061389;28;45460;-69
2022/06/16 09:10:14;;;;;;;;;7.33;7.33;;;;;27.64;25.89;101890.66;5062013;28;45428;-69
2022/06/16 09:12:14;;;;;;;;;7.67;7.67;;;;;27.94;26.53;101892.63;5051316;28;45268;-69
2022/06/16 09:15:11;;;;;;;;;5.33;5.33;;;;;28.52;26.21;101892.88;5070077;28;46531;-69
2022/06/16 09:18:19;;;;;;;;;5.33;5.00;;;;;29.08;25.98;101891.53;5066646;27;45264;-69
2022/06/16 09:20:47;;;;;;;;;9.67;8.00;;;;;29.41;24.66;101886.16;5040152;28;45414;-69
2022/06/16 09:23:25;;;;;;;;;6.33;6.00;;;;;29.15;24.95;101886.66;5059487;28;45525;-69
2022/06/16 09:26:05;;;;;;;;;6.67;6.00;;;;;29.45;25.68;101887.38;5061582;28;45372;-69
2022/06/16 09:28:43;;;;;;;;;7.00;6.00;;;;;29.72;24.73;101899.75;5065603;28;45628;-67
2022/06/16 09:31:15;;;;;;;;;5.33;5.33;;;;;29.96;24.95;101896.88;5065396;28;45323;-67
2022/06/16 09:33:48;;;;;;;;;4.33;4.33;;;;;30.21;24.51;101899.34;5066041;28;45374;-68
2022/06/16 09:36:30;;;;;;;;;9.00;9.00;;;;;30.03;23.69;101900.38;5063940;28;48416;-69
2022/06/16 09:39:11;;;;;;;;;8.67;6.33;;;;;30.21;23.55;101896.53;5064641;28;45285;-68
2022/06/16 09:45:01;;;;;;;;;8.33;6.33;;;;;30.12;23.66;101901.69;5066071;28;45306;-69
2022/06/16 09:47:33;;;;;;;;;5.00;5.00;;;;;29.96;24.47;101889.31;5065916;28;46561;-69
2022/06/16 09:50:19;;;;;;;;;6.00;6.00;;;;;30.04;24.33;101891.72;5065652;28;45335;-67
2022/06/16 09:53:08;;;;;;;;;6.33;6.33;;;;;30.26;24.05;101882.63;5081589;27;45264;-68
2022/06/16 09:55:43;;;;;;;;;9.00;6.00;;;;;30.15;23.98;101878.78;5054420;28;45328;-68
2022/06/16 09:58:20;;;;;;;;;13.00;9.67;;;;;30.43;23.93;101877.88;5065383;28;46218;-68
2022/06/16 10:00:47;;;;;;;;;5.33;5.33;;;;;30.80;23.61;101867.91;5065656;28;45337;-68
2022/06/16 10:03:23;;;;;;;;;9.67;8.67;;;;;31.06;23.23;101871.13;5065695;28;45230;-68
2022/06/16 10:05:58;;;;;;;;;7.00;7.00;;;;;31.29;23.59;101859.69;5065848;28;45326;-68
2022/06/16 10:09:03;;;;;;;;;10.00;8.00;;;;;31.74;23.88;101861.44;5063823;28;45530;-68
2022/06/16 10:11:33;;;;;;;;;7.67;7.67;;;;;32.25;23.37;101868.50;5063046;28;45204;-68
2022/06/16 10:14:14;;;;;;;;;7.33;5.67;;;;;32.50;22.53;101879.16;5065551;28;45413;-68
2022/06/16 10:16:55;;;;;;;;;8.00;8.00;;;;;32.43;22.18;101871.81;5065400;28;45462;-68
2022/06/16 10:19:28;;;;;;;;;7.67;7.67;;;;;32.57;23.06;101879.81;5064854;28;46793;-68
2022/06/16 10:21:54;;;;;;;;;8.00;6.67;;;;;32.67;21.97;101872.28;5064896;28;45140;-68
2022/06/16 10:24:24;;;;;;;;;8.00;8.00;;;;;32.62;21.76;101879.84;5065048;28;45256;-68
2022/06/16 10:26:50;;;;;;;;;9.00;7.67;;;;;32.81;22.67;101878.34;5055171;28;45394;-68
2022/06/16 10:29:34;;;;;;;;;8.33;7.00;;;;;32.45;22.10;101880.81;5065238;28;45340;-68
2022/06/16 10:32:01;;;;;;;;;7.00;7.00;;;;;31.86;23.04;101884.63;5063956;28;45353;-68
2022/06/16 10:34:29;;;;;;;;;11.67;8.67;;;;;32.04;22.21;101884.28;5065058;28;45402;-68
2022/06/16 10:37:15;;;;;;;;;9.67;9.67;;;;;31.21;23.13;101877.84;5065387;28;45464;-68
2022/06/16 10:39:49;;;;;;;;;8.67;8.33;;;;;32.18;22.83;101879.97;5052843;28;45397;-68
2022/06/16 10:42:14;;;;;;;;;9.25;9.25;;;;;32.16;23.07;101881.34;5064511;28;45332;-68
2022/06/16 10:44:45;;;;;;;;;9.25;8.25;;;;;32.56;22.94;101881.75;5065064;28;45231;-68
2022/06/16 10:47:20;;;;;;;;;11.00;11.00;;;;;33.07;22.94;101882.19;5065286;28;45436;-68
2022/06/16 10:49:48;;;;;;;;;3.25;3.25;;;;;32.68;23.10;101875.97;5064817;28;47061;-68
2022/06/16 10:52:24;;;;;;;;;10.00;10.00;;;;;32.45;23.36;101871.50;5064436;28;45233;-68
2022/06/16 10:55:10;;;;;;;;;9.50;9.50;;;;;32.70;22.15;101865.31;5064560;28;45460;-68
2022/06/16 10:57:46;;;;;;;;;9.75;9.75;;;;;32.51;22.80;101869.63;5064860;28;45191;-68
2022/06/16 11:00:19;;;;;;;;;12.50;11.25;;;;;31.85;23.25;101857.66;5064033;28;45245;-68
2022/06/16 11:03:05;;;;;;;;;9.75;8.75;;;;;32.67;22.80;101860.16;5064325;28;45370;-68
2022/06/16 11:05:36;;;;;;;;;16.00;15.00;;;;;32.69;22.97;101866.41;5062982;28;45208;-68
2022/06/16 11:08:11;;;;;;;;;10.25;10.25;;;;;32.70;22.07;101865.31;5079931;28;45415;-68
2022/06/16 11:10:40;;;;;;;;;13.50;10.50;;;;;32.30;22.27;101882.63;5064183;28;46263;-68
2022/06/16 11:13:14;;;;;;;;;9.25;8.50;;;;;32.38;21.83;101874.56;5062584;28;45626;-68
2022/06/16 11:15:41;;;;;;;;;9.75;9.75;;;;;32.63;21.58;101868.31;5064380;28;45333;-68
2022/06/16 11:18:12;;;;;;;;;10.67;8.33;;;;;32.81;21.09;101861.44;5064649;28;45251;-68
2022/06/16 11:20:40;;;;;;;;;9.50;9.50;;;;;33.62;21.06;101856.31;5064031;28;45743;-69
2022/06/16 11:23:18;;;;;;;;;11.25;9.50;;;;;34.23;20.32;101856.56;5063639;28;45241;-67
2022/06/16 11:25:43;;;;;;;;;12.75;11.75;;;;;34.08;20.90;101864.97;5063073;28;45310;-69
2022/06/16 11:28:15;;;;;;;;;12.75;9.00;;;;;34.15;20.54;101859.91;5063663;28;45367;-69
2022/06/16 11:30:43;;;;;;;;;8.50;8.50;;;;;33.10;20.63;101868.41;5063447;28;45737;-69
2022/06/16 11:36:43;;;;;;;;;10.00;10.00;;;;;33.21;21.65;101869.38;5063208;28;45188;-68
2022/06/16 11:39:26;;;;;;;;;7.75;7.75;;;;;32.99;21.57;101863.84;5064245;28;45353;-68
2022/06/16 11:41:54;;;;;;;;;10.50;10.25;;;;;33.47;20.59;101865.56;5062083;28;47238;-67
2022/06/16 11:44:41;;;;;;;;;7.75;7.75;;;;;33.83;20.12;101868.56;5062558;28;45328;-67
2022/06/16 11:47:38;;;;;;;;;8.50;8.50;;;;;33.49;19.77;101868.09;5062150;28;45349;-67
2022/06/16 11:50:14;;;;;;;;;7.75;7.00;;;;;33.77;19.13;101864.88;5063003;28;45238;-67
2022/06/16 11:52:47;;;;;;;;;8.50;8.50;;;;;34.00;19.74;101861.56;5062222;28;46982;-67